Time;durP1;ratioP1;P1;durP2;ratioP2;P2;SDS_P1;SDS_P2;PMS_P1;PMS_P2;Temp;Humidity;BMP_temperature;BMP_pressure;BME280_temperature;BME280_humidity;BME280_pressure;Samples;Min_cycle;Max_cycle;Signal;HPM_P1;HPM_P2
2023/08/14 00:02:22;;;;;;;7.13;6.43;;;20.10;80.90;;;;;;4936880;29;20186;-70
2023/08/14 00:04:48;;;;;;;6.47;5.77;;;20.00;80.80;;;;;;4936961;29;20203;-70
2023/08/14 00:07:14;;;;;;;6.87;6.17;;;20.00;80.80;;;;;;4937214;29;20513;-71
2023/08/14 00:09:39;;;;;;;8.13;5.47;;;20.00;80.80;;;;;;4937007;29;20446;-70
2023/08/14 00:12:05;;;;;;;5.87;5.27;;;19.90;80.40;;;;;;4936675;29;20191;-71
2023/08/14 00:14:30;;;;;;;6.80;6.10;;;19.90;80.70;;;;;;4936695;29;20230;-70
2023/08/14 00:16:56;;;;;;;7.47;6.50;;;19.90;80.70;;;;;;4936806;29;20677;-70
2023/08/14 00:19:21;;;;;;;7.67;6.67;;;19.80;80.70;;;;;;4936883;29;20186;-70
2023/08/14 00:21:47;;;;;;;8.10;6.13;;;19.80;80.60;;;;;;4936438;29;20642;-70
2023/08/14 00:24:13;;;;;;;6.03;5.50;;;19.80;80.60;;;;;;4935596;29;20222;-70
2023/08/14 00:26:38;;;;;;;5.70;5.20;;;19.80;80.70;;;;;;4936397;29;20222;-70
2023/08/14 00:29:04;;;;;;;5.90;4.63;;;19.80;80.70;;;;;;4936586;29;20187;-70
2023/08/14 00:31:30;;;;;;;4.90;4.50;;;19.70;80.60;;;;;;4936488;29;20182;-70
2023/08/14 00:33:55;;;;;;;6.50;5.27;;;19.80;80.70;;;;;;4936349;29;20202;-70
2023/08/14 00:36:21;;;;;;;7.33;5.73;;;19.80;80.70;;;;;;4936355;29;20210;-70
2023/08/14 00:38:46;;;;;;;6.43;5.73;;;19.80;80.60;;;;;;4936553;29;20241;-70
2023/08/14 00:41:12;;;;;;;7.30;5.43;;;19.80;80.70;;;;;;4936540;29;20245;-71
2023/08/14 00:43:37;;;;;;;6.43;5.83;;;19.80;80.70;;;;;;4936002;29;20211;-71
2023/08/14 00:46:05;;;;;;;5.00;4.43;;;19.80;80.70;;;;;;4936149;29;20221;-70
2023/08/14 00:48:30;;;;;;;7.00;5.80;;;19.90;80.30;;;;;;4936277;29;20182;-70
2023/08/14 00:50:57;;;;;;;5.43;4.77;;;20.00;79.40;;;;;;4936151;29;20810;-71
2023/08/14 00:53:27;;;;;;;7.30;6.10;;;20.00;78.90;;;;;;4935688;29;20303;-70
2023/08/14 00:55:53;;;;;;;8.80;5.87;;;20.00;79.10;;;;;;4936150;29;20829;-70
2023/08/14 00:58:19;;;;;;;5.70;5.10;;;20.10;78.30;;;;;;4936053;29;20427;-70
2023/08/14 01:00:45;;;;;;;6.03;4.83;;;20.10;77.10;;;;;;4936318;29;20967;-70
2023/08/14 01:03:11;;;;;;;5.17;4.63;;;20.20;76.00;;;;;;4935803;29;20720;-71
2023/08/14 01:05:38;;;;;;;8.17;6.47;;;20.20;75.50;;;;;;4935535;29;20214;-71
2023/08/14 01:08:04;;;;;;;7.60;5.10;;;20.20;75.30;;;;;;4935911;29;20191;-71
2023/08/14 01:11:08;;;;;;;6.10;5.37;;;20.20;75.60;;;;;;4935540;29;20446;-70
2023/08/14 01:14:04;;;;;;;5.80;5.20;;;20.20;75.80;;;;;;4935420;29;20222;-70
2023/08/14 01:16:38;;;;;;;5.13;3.90;;;20.30;75.20;;;;;;4935653;29;20406;-71
2023/08/14 01:19:10;;;;;;;6.70;6.10;;;20.40;74.80;;;;;;4935782;29;20422;-71
2023/08/14 01:21:47;;;;;;;10.77;6.87;;;20.30;75.90;;;;;;4935347;29;20525;-70
2023/08/14 01:24:38;;;;;;;9.00;6.10;;;20.20;75.40;;;;;;4935509;29;20468;-71
2023/08/14 01:27:03;;;;;;;8.20;6.20;;;20.10;79.00;;;;;;4935625;29;20840;-74
2023/08/14 01:29:33;;;;;;;7.57;6.80;;;20.10;80.30;;;;;;4936494;29;20403;-70
2023/08/14 01:31:59;;;;;;;6.00;5.23;;;20.10;80.80;;;;;;4935980;29;20530;-69
2023/08/14 01:34:25;;;;;;;8.37;7.60;;;20.10;80.00;;;;;;4935617;29;20529;-69
2023/08/14 01:37:05;;;;;;;9.00;7.40;;;20.10;80.80;;;;;;4936069;29;20194;-70
2023/08/14 01:39:48;;;;;;;8.77;7.43;;;20.20;81.00;;;;;;4936395;29;20238;-69
2023/08/14 01:42:24;;;;;;;9.47;8.00;;;20.20;80.00;;;;;;4936053;29;20769;-69
2023/08/14 01:44:55;;;;;;;9.67;5.80;;;20.30;80.50;;;;;;4936116;29;20438;-70
2023/08/14 01:47:23;;;;;;;5.77;4.80;;;20.20;78.20;;;;;;4935933;29;20521;-70
2023/08/14 01:49:50;;;;;;;9.20;5.60;;;20.10;76.60;;;;;;4936396;29;20787;-70
2023/08/14 01:52:15;;;;;;;4.60;4.00;;;20.00;76.20;;;;;;4936121;29;20776;-70
2023/08/14 01:54:41;;;;;;;5.60;4.00;;;19.90;72.20;;;;;;4936417;29;20569;-70
2023/08/14 01:57:06;;;;;;;7.37;4.07;;;19.80;70.50;;;;;;4936608;29;20540;-70
2023/08/14 01:59:42;;;;;;;5.30;3.20;;;19.70;69.80;;;;;;4936367;29;20557;-70
2023/08/14 02:02:08;;;;;;;4.83;4.23;;;19.70;70.40;;;;;;4936232;29;20591;-70
2023/08/14 02:04:33;;;;;;;3.43;2.90;;;19.60;70.50;;;;;;4936449;29;21278;-70
2023/08/14 02:06:59;;;;;;;6.17;3.17;;;19.60;70.30;;;;;;4936083;29;20418;-70
2023/08/14 02:09:25;;;;;;;4.23;3.33;;;19.50;70.20;;;;;;4935559;29;20185;-70
2023/08/14 02:11:50;;;;;;;3.10;2.70;;;19.40;71.00;;;;;;4935027;29;20185;-69
2023/08/14 02:14:16;;;;;;;4.50;3.63;;;19.40;71.60;;;;;;4935457;29;20206;-70
2023/08/14 02:16:41;;;;;;;3.50;2.77;;;19.40;70.20;;;;;;4936271;29;20665;-69
2023/08/14 02:19:07;;;;;;;5.83;3.33;;;19.40;71.10;;;;;;4935500;29;20179;-70
2023/08/14 02:21:32;;;;;;;5.17;3.17;;;19.40;70.70;;;;;;4934816;29;20171;-70
2023/08/14 02:23:58;;;;;;;4.30;3.20;;;19.30;70.20;;;;;;4935117;29;20206;-70
2023/08/14 02:26:23;;;;;;;3.60;3.03;;;19.30;71.90;;;;;;4935657;29;20202;-70
2023/08/14 02:28:49;;;;;;;5.83;3.90;;;19.30;73.20;;;;;;4935421;29;20182;-70
2023/08/14 02:31:14;;;;;;;4.17;3.27;;;19.40;74.70;;;;;;4935712;29;20178;-70
2023/08/14 02:33:40;;;;;;;6.17;4.27;;;19.40;74.10;;;;;;4936320;29;20175;-70
2023/08/14 02:36:05;;;;;;;4.27;3.40;;;19.40;72.50;;;;;;4935824;29;20183;-70
2023/08/14 02:38:31;;;;;;;3.60;2.67;;;19.40;72.30;;;;;;4935622;29;20196;-70
2023/08/14 02:40:56;;;;;;;4.10;3.50;;;19.40;72.80;;;;;;4936004;29;20202;-70
2023/08/14 02:43:22;;;;;;;4.40;3.37;;;19.40;73.50;;;;;;4935369;29;20222;-70
2023/08/14 02:45:48;;;;;;;5.00;4.30;;;19.40;74.20;;;;;;4936604;29;20214;-70
2023/08/14 02:48:13;;;;;;;4.97;3.80;;;19.40;74.80;;;;;;4939824;29;20185;-70
2023/08/14 02:50:39;;;;;;;3.70;3.10;;;19.40;75.00;;;;;;4940092;29;20227;-70
2023/08/14 02:53:05;;;;;;;4.47;3.80;;;19.50;74.60;;;;;;4940293;29;20258;-70
2023/08/14 02:55:30;;;;;;;5.10;2.77;;;19.40;73.20;;;;;;4938245;29;20870;-70
2023/08/14 02:57:56;;;;;;;4.03;3.57;;;19.40;73.70;;;;;;4939668;29;20656;-70
2023/08/14 03:00:21;;;;;;;3.90;3.20;;;19.40;73.40;;;;;;4939386;29;20198;-69
2023/08/14 03:02:47;;;;;;;3.43;2.97;;;19.40;73.50;;;;;;4939226;29;20190;-70
2023/08/14 03:05:13;;;;;;;2.83;2.33;;;19.40;73.10;;;;;;4939045;29;20214;-70
2023/08/14 03:07:38;;;;;;;3.80;2.97;;;19.40;72.20;;;;;;4937902;29;20202;-70
2023/08/14 03:10:05;;;;;;;4.43;3.10;;;19.40;71.50;;;;;;4939782;29;20189;-69
2023/08/14 03:12:30;;;;;;;4.30;3.40;;;19.30;71.80;;;;;;4939082;29;20174;-70
2023/08/14 03:14:56;;;;;;;4.47;2.60;;;19.20;73.20;;;;;;4939285;29;20434;-70
2023/08/14 03:17:22;;;;;;;3.97;3.57;;;19.20;73.40;;;;;;4940451;29;20191;-70
2023/08/14 03:19:47;;;;;;;5.50;3.53;;;19.30;73.20;;;;;;4940160;29;20265;-71
2023/08/14 03:22:13;;;;;;;5.07;2.97;;;19.30;72.60;;;;;;4939318;29;20682;-70
2023/08/14 03:24:38;;;;;;;3.60;2.60;;;19.20;72.50;;;;;;4939531;29;20241;-70
2023/08/14 03:27:04;;;;;;;3.30;3.00;;;19.20;73.00;;;;;;4939486;29;20175;-70
2023/08/14 03:29:29;;;;;;;3.23;2.73;;;19.20;73.00;;;;;;4939579;29;20570;-70
2023/08/14 03:31:55;;;;;;;4.40;2.67;;;19.20;72.80;;;;;;4939283;29;20199;-70
2023/08/14 03:34:21;;;;;;;4.30;2.97;;;19.10;73.10;;;;;;4938928;29;20210;-69
2023/08/14 03:36:46;;;;;;;4.90;3.50;;;19.00;74.20;;;;;;4939224;29;20226;-69
2023/08/14 03:39:12;;;;;;;3.90;3.27;;;18.90;74.70;;;;;;4939397;29;20679;-70
2023/08/14 03:41:37;;;;;;;3.83;3.40;;;18.90;75.10;;;;;;4938962;29;20551;-70
2023/08/14 03:44:03;;;;;;;6.43;4.07;;;18.90;75.40;;;;;;4939191;29;20210;-70
2023/08/14 03:46:28;;;;;;;5.30;3.87;;;18.90;75.90;;;;;;4938826;29;20207;-70
2023/08/14 03:48:54;;;;;;;5.00;3.40;;;18.90;76.00;;;;;;4938489;29;20206;-70
2023/08/14 03:51:20;;;;;;;4.87;3.77;;;18.90;76.20;;;;;;4938176;29;20661;-70
2023/08/14 03:53:45;;;;;;;4.00;3.50;;;18.90;76.60;;;;;;4938147;29;20206;-70
2023/08/14 03:56:11;;;;;;;5.03;3.63;;;18.90;76.30;;;;;;4938473;29;20182;-70
2023/08/14 03:58:36;;;;;;;4.33;3.53;;;18.90;76.20;;;;;;4938329;29;20626;-70
2023/08/14 04:01:02;;;;;;;4.33;3.50;;;18.90;75.70;;;;;;4937761;29;20197;-71
2023/08/14 04:03:28;;;;;;;4.20;3.40;;;18.90;74.90;;;;;;4938205;29;20277;-70
2023/08/14 04:05:57;;;;;;;6.23;3.70;;;18.90;74.80;;;;;;4938265;29;20462;-70
2023/08/14 04:08:23;;;;;;;4.33;3.30;;;19.00;75.50;;;;;;4938175;29;20274;-71
2023/08/14 04:10:57;;;;;;;4.93;3.80;;;19.00;74.20;;;;;;4938335;29;20462;-70
2023/08/14 04:13:24;;;;;;;6.17;3.73;;;19.10;74.70;;;;;;4938151;29;20422;-70
2023/08/14 04:15:50;;;;;;;4.27;3.47;;;19.10;73.50;;;;;;4939048;29;20418;-70
2023/08/14 04:18:15;;;;;;;4.70;3.20;;;19.20;73.60;;;;;;4938623;29;20843;-69
2023/08/14 04:20:42;;;;;;;5.13;3.90;;;19.10;73.20;;;;;;4938404;29;20434;-70
2023/08/14 04:23:08;;;;;;;6.23;4.00;;;19.20;74.50;;;;;;4937964;29;20265;-70
2023/08/14 04:25:33;;;;;;;4.17;3.20;;;19.20;74.40;;;;;;4938615;29;20520;-71
2023/08/14 04:27:59;;;;;;;5.03;4.13;;;19.30;73.20;;;;;;4938599;29;20174;-71
2023/08/14 04:30:25;;;;;;;5.57;4.00;;;19.30;72.00;;;;;;4938312;29;20182;-73
2023/08/14 04:32:50;;;;;;;5.47;3.80;;;19.30;72.30;;;;;;4937977;29;20206;-71
2023/08/14 04:35:16;;;;;;;3.93;3.23;;;19.40;71.40;;;;;;4938006;29;20214;-71
2023/08/14 04:37:41;;;;;;;6.80;3.97;;;19.40;71.90;;;;;;4938434;29;20719;-72
2023/08/14 04:40:07;;;;;;;3.90;3.20;;;19.40;72.30;;;;;;4937970;29;20657;-73
2023/08/14 04:42:33;;;;;;;4.50;4.10;;;19.40;72.40;;;;;;4936730;29;20186;-72
2023/08/14 04:44:59;;;;;;;4.73;3.93;;;19.50;70.90;;;;;;4936481;29;20820;-72
2023/08/14 04:47:24;;;;;;;5.83;4.70;;;19.50;70.70;;;;;;4936269;29;20431;-71
2023/08/14 04:49:51;;;;;;;4.47;3.90;;;19.60;70.70;;;;;;4936126;29;20254;-71
2023/08/14 04:52:17;;;;;;;8.20;4.13;;;19.60;71.30;;;;;;4936186;29;20194;-73
2023/08/14 04:54:42;;;;;;;4.47;3.50;;;19.60;70.30;;;;;;4934925;29;20450;-74
2023/08/14 04:57:08;;;;;;;4.50;3.90;;;19.60;70.30;;;;;;4936417;29;20182;-73
2023/08/14 04:59:33;;;;;;;9.33;4.20;;;19.50;71.00;;;;;;4936043;29;20179;-73
2023/08/14 05:01:59;;;;;;;4.70;3.10;;;19.60;71.10;;;;;;4936269;29;20183;-72
2023/08/14 05:04:25;;;;;;;4.40;3.40;;;19.60;69.40;;;;;;4936222;29;20202;-72
2023/08/14 05:06:51;;;;;;;5.50;4.37;;;19.60;70.30;;;;;;4936310;29;20225;-72
2023/08/14 05:09:17;;;;;;;5.23;4.23;;;19.60;70.30;;;;;;4936897;29;20179;-73
2023/08/14 05:11:43;;;;;;;3.77;3.47;;;19.60;68.80;;;;;;4938647;29;20430;-73
2023/08/14 05:14:08;;;;;;;6.60;4.63;;;19.70;68.40;;;;;;4937703;29;20483;-72
2023/08/14 05:16:34;;;;;;;8.53;5.47;;;19.70;68.60;;;;;;4936485;29;20189;-73
2023/08/14 05:18:59;;;;;;;8.33;3.40;;;19.80;69.40;;;;;;4936187;29;20189;-72
2023/08/14 05:21:25;;;;;;;5.30;3.07;;;19.90;68.40;;;;;;4935910;29;20186;-72
2023/08/14 05:23:50;;;;;;;5.90;4.20;;;20.00;67.90;;;;;;4934260;29;20277;-73
2023/08/14 05:26:16;;;;;;;4.37;3.90;;;20.00;66.00;;;;;;4935608;29;20689;-74
2023/08/14 05:28:41;;;;;;;4.33;3.93;;;20.10;66.80;;;;;;4935439;29;20201;-73
2023/08/14 05:31:07;;;;;;;7.07;4.37;;;20.30;66.50;;;;;;4935699;29;20254;-72
2023/08/14 05:33:33;;;;;;;8.30;4.30;;;20.50;65.80;;;;;;4935337;29;20175;-71
2023/08/14 05:35:59;;;;;;;4.30;3.63;;;20.70;63.20;;;;;;4935677;29;20434;-70
2023/08/14 05:38:24;;;;;;;5.03;4.03;;;21.00;60.80;;;;;;4935340;29;20182;-71
2023/08/14 05:40:50;;;;;;;4.83;3.27;;;21.30;58.00;;;;;;4934349;29;20190;-70
2023/08/14 05:43:16;;;;;;;3.63;3.33;;;21.40;54.70;;;;;;4934931;29;20657;-70
2023/08/14 05:45:43;;;;;;;4.60;3.60;;;21.60;52.70;;;;;;4935262;29;20253;-70
2023/08/14 05:48:09;;;;;;;4.23;3.80;;;21.80;48.40;;;;;;4935428;29;20202;-71
2023/08/14 05:50:36;;;;;;;3.60;2.87;;;21.80;47.10;;;;;;4935219;29;20426;-71
2023/08/14 05:53:06;;;;;;;5.13;3.27;;;21.80;48.70;;;;;;4934852;29;20793;-71
2023/08/14 05:55:39;;;;;;;4.40;3.80;;;22.00;48.40;;;;;;4934805;29;20458;-71
2023/08/14 05:58:08;;;;;;;6.30;3.17;;;22.00;46.90;;;;;;4934446;29;20532;-71
2023/08/14 06:00:38;;;;;;;4.43;3.70;;;22.40;49.50;;;;;;4935174;29;20481;-71
2023/08/14 06:03:04;;;;;;;3.90;2.63;;;23.90;39.80;;;;;;4934787;29;20423;-71
2023/08/14 06:05:30;;;;;;;3.90;3.03;;;26.20;27.10;;;;;;4934815;29;20466;-71
2023/08/14 06:07:56;;;;;;;3.47;2.60;;;27.80;21.10;;;;;;4949758;29;20925;-71
2023/08/14 06:10:23;;;;;;;6.17;2.87;;;29.00;16.40;;;;;;4934464;29;20345;-71
2023/08/14 06:12:49;;;;;;;4.53;3.20;;;30.40;12.20;;;;;;4934582;29;20454;-71
2023/08/14 06:15:15;;;;;;;4.07;2.63;;;30.90;9.50;;;;;;4934486;29;20529;-72
2023/08/14 06:17:42;;;;;;;3.73;3.07;;;31.90;8.40;;;;;;4934786;29;20437;-69
2023/08/14 06:20:10;;;;;;;4.00;3.00;;;32.70;4.20;;;;;;4934279;29;20616;-70
2023/08/14 06:22:40;;;;;;;3.13;2.63;;;33.50;1.50;;;;;;4934436;29;20434;-68
2023/08/14 06:25:06;;;;;;;3.77;3.43;;;32.30;1.60;;;;;;4934466;29;20489;-71
2023/08/14 06:27:32;;;;;;;4.57;3.07;;;30.90;4.80;;;;;;4934757;29;20474;-70
2023/08/14 06:29:57;;;;;;;4.10;3.10;;;29.10;9.90;;;;;;4935514;29;20819;-73
2023/08/14 06:32:23;;;;;;;6.43;3.33;;;27.80;13.50;;;;;;4934581;29;20609;-73
2023/08/14 06:34:48;;;;;;;5.20;3.30;;;26.80;16.10;;;;;;4934255;29;20214;-72
2023/08/14 06:37:14;;;;;;;5.07;3.37;;;27.20;16.70;;;;;;4938696;29;20202;-71
2023/08/14 06:39:39;;;;;;;4.10;3.70;;;29.00;13.20;;;;;;4950350;28;20192;-72
2023/08/14 06:42:05;;;;;;;6.40;3.47;;;30.20;9.10;;;;;;4936289;28;20285;-71
2023/08/14 06:44:31;;;;;;;5.30;4.67;;;31.20;7.80;;;;;;4930440;29;20285;-71
2023/08/14 06:46:57;;;;;;;4.33;3.90;;;33.20;4.90;;;;;;4930947;29;20210;-72
2023/08/14 06:49:22;;;;;;;6.00;5.00;;;34.00;2.50;;;;;;4930187;29;20673;-72
2023/08/14 06:51:48;;;;;;;5.27;4.77;;;35.30;1.00;;;;;;4930249;29;20190;-71
2023/08/14 06:54:13;;;;;;;6.80;5.23;;;36.30;1.00;;;;;;4924545;29;20217;-71
2023/08/14 06:56:39;;;;;;;5.77;5.30;;;37.20;1.00;;;;;;4923243;29;20195;-71
2023/08/14 06:59:04;;;;;;;6.10;5.60;;;37.90;1.00;;;;;;4930534;29;20195;-72
2023/08/14 07:01:30;;;;;;;6.03;5.63;;;38.80;1.00;;;;;;4931272;29;20225;-71
2023/08/14 07:03:55;;;;;;;6.00;5.43;;;39.20;1.00;;;;;;4937540;29;20210;-71
2023/08/14 07:06:21;;;;;;;5.27;4.70;;;38.40;1.00;;;;;;4949509;28;20275;-71
2023/08/14 07:08:47;;;;;;;5.73;4.77;;;38.40;1.00;;;;;;4933504;29;20202;-72
2023/08/14 07:11:12;;;;;;;10.20;5.40;;;38.60;1.00;;;;;;4933527;29;20210;-72
2023/08/14 07:13:38;;;;;;;5.60;5.10;;;39.40;1.00;;;;;;4931112;29;20182;-72
2023/08/14 07:16:03;;;;;;;8.60;5.43;;;38.70;1.00;;;;;;4931058;29;20175;-71
2023/08/14 07:18:29;;;;;;;7.37;6.60;;;39.50;1.00;;;;;;4932096;29;20188;-72
2023/08/14 07:20:57;;;;;;;5.07;4.70;;;39.90;1.00;;;;;;4934248;29;20281;-71
2023/08/14 07:23:23;;;;;;;5.30;4.90;;;39.70;1.00;;;;;;4933989;29;20657;-72
2023/08/14 07:25:49;;;;;;;5.53;5.00;;;39.80;1.00;;;;;;4934526;29;20468;-72
2023/08/14 07:28:15;;;;;;;4.60;4.30;;;40.10;1.00;;;;;;4949310;29;20182;-72
2023/08/14 07:30:41;;;;;;;5.33;4.53;;;39.80;1.00;;;;;;4935202;29;20419;-72
2023/08/14 07:33:07;;;;;;;5.00;4.60;;;40.30;1.00;;;;;;4937922;29;20433;-71
2023/08/14 07:35:34;;;;;;;5.30;4.90;;;40.50;1.00;;;;;;4938510;29;20567;-71
2023/08/14 07:38:00;;;;;;;5.23;4.73;;;40.40;1.00;;;;;;4938446;29;20418;-71
2023/08/14 07:40:25;;;;;;;4.80;4.50;;;40.80;1.00;;;;;;4952776;29;20929;-70
2023/08/14 07:42:51;;;;;;;5.57;5.20;;;41.40;1.00;;;;;;4937463;29;20486;-71
2023/08/14 07:45:17;;;;;;;9.40;4.60;;;41.80;1.00;;;;;;4937664;29;20784;-71
2023/08/14 07:47:42;;;;;;;4.53;4.17;;;40.90;1.00;;;;;;4937421;29;20189;-71
2023/08/14 07:50:09;;;;;;;4.73;3.80;;;39.80;1.00;;;;;;4938039;29;20633;-71
2023/08/14 07:52:34;;;;;;;4.50;4.10;;;36.90;1.00;;;;;;4952203;29;20178;-71
2023/08/14 07:55:01;;;;;;;5.20;4.70;;;35.30;1.00;;;;;;4937533;29;20441;-71
2023/08/14 07:57:27;;;;;;;4.03;3.63;;;34.40;1.00;;;;;;4937676;29;20262;-71
2023/08/14 07:59:53;;;;;;;4.30;3.80;;;34.20;1.00;;;;;;4937312;29;20925;-71
2023/08/14 08:02:18;;;;;;;3.93;3.63;;;33.20;1.00;;;;;;4937039;29;20457;-74
2023/08/14 08:04:44;;;;;;;4.20;3.80;;;32.40;1.80;;;;;;4937599;29;20435;-71
2023/08/14 08:07:10;;;;;;;4.20;3.80;;;32.10;4.00;;;;;;4937290;29;20210;-70
2023/08/14 08:09:36;;;;;;;4.50;4.10;;;34.00;1.00;;;;;;4937360;29;20179;-71
2023/08/14 08:12:02;;;;;;;4.43;3.60;;;35.30;1.00;;;;;;4936992;29;20178;-71
2023/08/14 08:14:28;;;;;;;4.80;4.40;;;36.70;1.00;;;;;;4937005;29;20439;-71
2023/08/14 08:16:53;;;;;;;4.83;4.53;;;37.30;1.00;;;;;;4937046;29;20183;-71
2023/08/14 08:19:19;;;;;;;4.83;4.47;;;38.40;1.00;;;;;;4952126;29;20269;-72
2023/08/14 08:21:44;;;;;;;5.47;5.07;;;38.90;1.00;;;;;;4937065;29;20186;-71
2023/08/14 08:24:10;;;;;;;5.00;4.60;;;38.60;1.00;;;;;;4936806;29;20542;-71
2023/08/14 08:26:36;;;;;;;4.77;4.47;;;39.50;1.00;;;;;;4936802;29;20218;-71
2023/08/14 08:29:03;;;;;;;4.70;4.40;;;39.40;1.00;;;;;;4936623;29;20270;-71
2023/08/14 08:31:28;;;;;;;5.03;4.73;;;40.50;1.00;;;;;;4936483;29;20183;-70
2023/08/14 08:33:54;;;;;;;6.10;5.37;;;40.90;1.00;;;;;;4936575;29;20461;-70
2023/08/14 08:36:19;;;;;;;6.03;5.60;;;41.30;1.00;;;;;;4936899;29;20214;-71
2023/08/14 08:38:46;;;;;;;5.83;5.37;;;41.30;1.00;;;;;;4936454;29;20179;-71
2023/08/14 08:41:22;;;;;;;5.93;5.27;;;42.50;1.00;;;;;;4936470;29;20245;-71
2023/08/14 08:43:54;;;;;;;5.23;4.83;;;42.80;1.00;;;;;;4934917;29;20816;-71
2023/08/14 08:46:22;;;;;;;5.37;5.00;;;43.00;1.00;;;;;;4936373;29;20602;-70
2023/08/14 08:48:51;;;;;;;5.50;5.10;;;41.80;1.00;;;;;;4929972;29;20435;-71
2023/08/14 08:51:17;;;;;;;6.70;6.10;;;41.00;1.00;;;;;;4928503;29;20422;-71
2023/08/14 08:53:43;;;;;;;5.90;5.00;;;41.00;1.00;;;;;;4935940;29;20952;-70
2023/08/14 08:56:10;;;;;;;6.33;5.70;;;41.90;1.00;;;;;;4926272;29;20215;-71
2023/08/14 08:58:39;;;;;;;6.03;5.40;;;42.10;1.00;;;;;;4936255;29;20501;-70
2023/08/14 09:01:06;;;;;;;5.37;4.97;;;41.10;1.00;;;;;;4936252;29;20762;-71
2023/08/14 09:03:31;;;;;;;5.10;4.73;;;40.70;1.00;;;;;;4936048;29;20419;-70
2023/08/14 09:05:57;;;;;;;5.00;4.60;;;38.80;1.00;;;;;;4936046;29;20554;-71
2023/08/14 09:08:23;;;;;;;5.10;4.60;;;36.10;1.00;;;;;;4916003;29;20184;-71
2023/08/14 09:10:48;;;;;;;4.70;4.30;;;34.30;1.00;;;;;;4918859;29;20183;-71
2023/08/14 09:13:14;;;;;;;3.90;3.60;;;32.40;1.00;;;;;;4936125;29;20571;-70
2023/08/14 09:15:42;;;;;;;5.90;4.20;;;31.50;5.70;;;;;;4935791;29;20344;-71
2023/08/14 09:18:10;;;;;;;4.77;4.10;;;31.20;6.30;;;;;;4949148;29;20244;-71
2023/08/14 09:20:37;;;;;;;4.60;3.33;;;30.80;7.00;;;;;;4953560;29;20454;-71
2023/08/14 09:23:12;;;;;;;3.47;3.10;;;30.20;10.10;;;;;;4940930;28;20438;-71
2023/08/14 09:25:40;;;;;;;4.37;3.30;;;29.80;10.30;;;;;;4934333;29;20473;-71
2023/08/14 09:28:10;;;;;;;4.27;2.90;;;29.50;11.50;;;;;;4935451;29;20948;-71
2023/08/14 09:30:36;;;;;;;3.43;3.13;;;29.30;13.30;;;;;;4924551;29;21054;-71
2023/08/14 09:33:09;;;;;;;3.10;2.80;;;29.10;15.30;;;;;;4915872;29;20435;-72
2023/08/14 09:35:36;;;;;;;3.40;3.10;;;29.10;13.10;;;;;;4930931;29;20450;-72
2023/08/14 09:38:02;;;;;;;5.20;3.50;;;29.10;15.20;;;;;;4930621;29;20439;-71
2023/08/14 09:40:28;;;;;;;3.60;3.30;;;29.00;12.00;;;;;;4935543;29;20414;-76
2023/08/14 09:42:56;;;;;;;4.90;3.70;;;29.00;13.10;;;;;;4931782;29;20926;-70
2023/08/14 09:45:27;;;;;;;4.57;3.80;;;29.10;12.20;;;;;;4923732;29;20222;-72
2023/08/14 09:47:58;;;;;;;4.80;3.20;;;29.20;8.60;;;;;;4935309;29;20413;-72
2023/08/14 09:50:27;;;;;;;4.20;3.80;;;29.30;8.60;;;;;;4949826;29;20415;-72
2023/08/14 09:52:57;;;;;;;4.23;3.83;;;29.50;5.40;;;;;;4935189;29;20790;-72
2023/08/14 09:55:23;;;;;;;7.23;3.60;;;29.70;5.00;;;;;;4935011;29;20987;-72
2023/08/14 09:57:50;;;;;;;6.27;4.70;;;29.90;3.30;;;;;;4935772;29;20509;-72
2023/08/14 10:00:16;;;;;;;3.83;3.50;;;30.10;4.30;;;;;;4935061;29;20477;-71
2023/08/14 10:02:45;;;;;;;5.80;4.20;;;30.30;4.50;;;;;;4934780;29;20426;-71
2023/08/14 10:05:11;;;;;;;4.63;3.80;;;30.50;3.60;;;;;;4934635;29;20537;-72
2023/08/14 10:07:39;;;;;;;3.87;3.47;;;30.50;4.60;;;;;;4931237;29;20443;-72
2023/08/14 10:10:07;;;;;;;4.43;4.03;;;30.50;3.20;;;;;;4932091;29;20522;-72
2023/08/14 10:12:43;;;;;;;4.87;4.47;;;30.50;3.50;;;;;;4926471;29;20937;-72
2023/08/14 10:15:12;;;;;;;5.63;3.87;;;30.50;2.80;;;;;;4916002;29;20812;-72
2023/08/14 10:17:57;;;;;;;4.33;3.93;;;30.60;2.90;;;;;;4929977;29;20477;-72
2023/08/14 10:20:24;;;;;;;4.77;3.97;;;30.70;2.70;;;;;;4935121;29;20434;-72
2023/08/14 10:22:52;;;;;;;4.67;4.20;;;30.80;2.50;;;;;;4934872;29;21006;-72
2023/08/14 10:25:20;;;;;;;4.87;4.33;;;30.90;1.50;;;;;;4934781;29;20929;-72
2023/08/14 10:27:46;;;;;;;4.00;3.60;;;30.90;2.30;;;;;;4935019;29;20429;-71
2023/08/14 10:30:13;;;;;;;4.63;4.23;;;31.10;1.60;;;;;;4934632;29;21015;-71
2023/08/14 10:32:40;;;;;;;4.73;4.33;;;31.30;2.60;;;;;;4934160;29;20813;-72
2023/08/14 10:35:07;;;;;;;5.40;4.97;;;31.50;1.00;;;;;;4934815;29;20821;-72
2023/08/14 10:37:44;;;;;;;4.70;4.33;;;31.50;1.00;;;;;;4934370;29;20829;-72
2023/08/14 10:40:20;;;;;;;5.07;4.67;;;31.70;1.00;;;;;;4934833;29;20451;-72
2023/08/14 10:42:57;;;;;;;5.20;4.80;;;31.90;1.00;;;;;;4934226;29;20790;-72
2023/08/14 10:45:27;;;;;;;4.27;3.97;;;31.80;1.00;;;;;;4934597;29;20624;-71
2023/08/14 10:47:57;;;;;;;4.50;4.20;;;31.80;1.00;;;;;;4934162;29;20417;-72
2023/08/14 10:50:24;;;;;;;5.40;5.00;;;31.80;1.00;;;;;;4934658;29;20489;-72
2023/08/14 10:52:56;;;;;;;5.17;4.73;;;32.00;1.00;;;;;;4934316;29;20411;-72
2023/08/14 10:55:35;;;;;;;5.80;5.30;;;32.10;1.00;;;;;;4934435;29;20442;-72
2023/08/14 10:58:00;;;;;;;6.63;4.70;;;32.30;1.00;;;;;;4949456;29;20566;-72
2023/08/14 11:00:26;;;;;;;5.57;5.17;;;32.30;1.00;;;;;;4934437;29;20458;-72
2023/08/14 11:03:06;;;;;;;4.83;4.43;;;32.70;1.00;;;;;;4934404;29;20182;-73
2023/08/14 11:05:36;;;;;;;5.33;4.77;;;33.00;1.00;;;;;;4934465;29;20265;-72
2023/08/14 11:08:02;;;;;;;5.50;5.03;;;33.50;1.00;;;;;;4936983;29;20415;-72
2023/08/14 11:10:27;;;;;;;5.67;5.20;;;34.00;1.00;;;;;;4938390;29;20414;-70
2023/08/14 11:12:56;;;;;;;6.13;5.63;;;34.20;1.00;;;;;;4937832;29;20218;-69
2023/08/14 11:15:22;;;;;;;5.47;5.07;;;34.60;1.00;;;;;;4929864;29;20763;-70
2023/08/14 11:17:48;;;;;;;5.10;4.80;;;34.90;1.00;;;;;;4921077;29;20437;-70
2023/08/14 11:20:14;;;;;;;5.73;5.37;;;35.10;1.00;;;;;;4917566;29;20411;-70
2023/08/14 11:22:46;;;;;;;6.03;5.53;;;35.10;1.00;;;;;;4918445;29;20419;-70
2023/08/14 11:25:16;;;;;;;5.93;5.53;;;34.60;1.00;;;;;;4925112;29;20265;-70
2023/08/14 11:27:47;;;;;;;6.27;5.87;;;34.50;1.00;;;;;;4937913;29;20418;-70
2023/08/14 11:30:12;;;;;;;6.13;5.70;;;34.40;1.00;;;;;;4938095;29;20417;-69
2023/08/14 11:32:38;;;;;;;5.43;5.00;;;34.20;1.00;;;;;;4937699;29;20496;-70
2023/08/14 11:35:06;;;;;;;9.00;5.33;;;34.40;1.00;;;;;;4952700;28;20199;-70
2023/08/14 11:37:31;;;;;;;6.10;5.50;;;34.30;1.00;;;;;;4937896;29;20239;-70
2023/08/14 11:40:04;;;;;;;5.50;5.10;;;34.40;1.00;;;;;;4937716;29;20426;-70
2023/08/14 11:42:32;;;;;;;5.47;5.10;;;34.50;1.00;;;;;;4937488;29;20238;-69
2023/08/14 11:45:03;;;;;;;5.93;5.37;;;34.70;1.00;;;;;;4937360;29;20886;-70
2023/08/14 11:47:38;;;;;;;5.90;5.43;;;34.20;1.00;;;;;;4937598;29;20506;-69
2023/08/14 11:50:05;;;;;;;4.80;4.40;;;34.00;1.00;;;;;;4937197;29;20501;-70
2023/08/14 11:52:31;;;;;;;5.97;5.47;;;33.60;1.00;;;;;;4937334;29;20422;-70
2023/08/14 11:54:58;;;;;;;6.07;5.67;;;33.50;1.00;;;;;;4937379;29;20437;-70
2023/08/14 11:57:25;;;;;;;6.03;5.63;;;33.20;1.00;;;;;;4937306;29;20450;-69
2023/08/14 11:59:55;;;;;;;5.77;5.37;;;33.00;1.00;;;;;;4937220;29;20425;-69
2023/08/14 12:02:22;;;;;;;6.83;6.23;;;32.80;1.00;;;;;;4937295;29;20422;-69
2023/08/14 12:04:54;;;;;;;9.30;5.40;;;32.70;1.00;;;;;;4936965;29;20541;-70
2023/08/14 12:07:21;;;;;;;5.97;5.37;;;32.60;1.00;;;;;;4937297;29;20863;-70
2023/08/14 12:09:48;;;;;;;5.30;4.80;;;32.40;1.00;;;;;;4937159;29;20499;-70
2023/08/14 12:12:13;;;;;;;5.50;5.03;;;32.20;1.00;;;;;;4935746;29;20438;-70
2023/08/14 12:14:47;;;;;;;5.47;5.07;;;31.70;1.00;;;;;;4937016;29;20435;-69
2023/08/14 12:17:13;;;;;;;4.83;4.40;;;31.30;1.80;;;;;;4936939;29;20179;-70
2023/08/14 12:19:39;;;;;;;5.13;4.70;;;31.10;2.00;;;;;;4935824;29;20940;-70
2023/08/14 12:22:09;;;;;;;8.53;4.70;;;30.80;4.40;;;;;;4930658;29;20456;-70
2023/08/14 12:24:43;;;;;;;4.93;4.53;;;30.60;5.00;;;;;;4935655;29;20648;-70
2023/08/14 12:27:18;;;;;;;4.60;3.70;;;30.20;6.70;;;;;;4933494;29;20502;-70
2023/08/14 12:29:44;;;;;;;4.70;4.30;;;29.90;8.40;;;;;;4917796;29;20411;-70
2023/08/14 12:32:10;;;;;;;6.57;4.23;;;29.60;8.80;;;;;;4917192;29;20418;-70
2023/08/14 12:34:39;;;;;;;7.33;4.40;;;29.40;10.00;;;;;;4933756;29;20482;-70
2023/08/14 12:37:05;;;;;;;8.13;4.37;;;29.10;11.70;;;;;;4936421;29;20924;-70
2023/08/14 12:39:31;;;;;;;4.20;3.80;;;29.00;12.10;;;;;;4936514;29;20429;-70
2023/08/14 12:41:59;;;;;;;5.50;4.37;;;28.80;12.30;;;;;;4936470;29;20414;-71
2023/08/14 12:44:26;;;;;;;5.20;3.80;;;28.70;13.40;;;;;;4936579;29;20960;-71
2023/08/14 12:46:52;;;;;;;4.83;3.93;;;28.60;16.40;;;;;;4935934;29;20975;-70
2023/08/14 12:49:17;;;;;;;9.57;4.87;;;28.40;21.70;;;;;;4951086;28;20437;-71
2023/08/14 12:51:43;;;;;;;4.87;4.30;;;28.00;25.70;;;;;;4935946;29;20202;-70